sensor_id;sensor_type;location;lat;lon;timestamp;pressure;altitude;pressure_sealevel;temperature;humidity
48424;BME280;34232;42.502;26.014;2024-02-04T00:01:14;100395.34;;;5.18;62.22
48424;BME280;34232;42.502;26.014;2024-02-04T00:03:39;100394.06;;;5.25;62.28
48424;BME280;34232;42.502;26.014;2024-02-04T00:06:05;100393.59;;;5.34;61.72
48424;BME280;34232;42.502;26.014;2024-02-04T00:08:31;100400.28;;;5.38;61.56
48424;BME280;34232;42.502;26.014;2024-02-04T00:10:57;100408.13;;;5.38;61.41
48424;BME280;34232;42.502;26.014;2024-02-04T00:13:22;100410.09;;;5.19;61.45
48424;BME280;34232;42.502;26.014;2024-02-04T00:15:47;100397.03;;;5.19;61.64
48424;BME280;34232;42.502;26.014;2024-02-04T00:18:13;100396.25;;;4.85;62.89
48424;BME280;34232;42.502;26.014;2024-02-04T00:20:38;100391.28;;;4.97;62.82
48424;BME280;34232;42.502;26.014;2024-02-04T00:23:03;100402.50;;;4.99;62.60
48424;BME280;34232;42.502;26.014;2024-02-04T00:25:29;100411.91;;;5.01;62.81
48424;BME280;34232;42.502;26.014;2024-02-04T00:27:54;100408.88;;;4.93;63.07
48424;BME280;34232;42.502;26.014;2024-02-04T00:30:20;100416.63;;;4.95;62.82
48424;BME280;34232;42.502;26.014;2024-02-04T00:32:45;100415.69;;;4.96;62.63
48424;BME280;34232;42.502;26.014;2024-02-04T00:35:11;100416.78;;;4.91;62.21
48424;BME280;34232;42.502;26.014;2024-02-04T00:37:36;100420.81;;;4.81;61.89
48424;BME280;34232;42.502;26.014;2024-02-04T00:40:01;100418.19;;;4.81;61.64
48424;BME280;34232;42.502;26.014;2024-02-04T00:42:27;100414.91;;;4.78;62.08
48424;BME280;34232;42.502;26.014;2024-02-04T00:44:52;100415.91;;;4.75;62.99
48424;BME280;34232;42.502;26.014;2024-02-04T00:47:17;100418.66;;;4.72;63.16
48424;BME280;34232;42.502;26.014;2024-02-04T00:49:43;100411.75;;;4.71;63.65
48424;BME280;34232;42.502;26.014;2024-02-04T00:52:08;100418.59;;;4.74;63.83
48424;BME280;34232;42.502;26.014;2024-02-04T00:54:33;100418.22;;;4.64;64.10
48424;BME280;34232;42.502;26.014;2024-02-04T00:56:59;100427.97;;;4.61;63.29
48424;BME280;34232;42.502;26.014;2024-02-04T00:59:25;100413.47;;;4.55;62.58
48424;BME280;34232;42.502;26.014;2024-02-04T01:01:50;100426.22;;;4.44;62.54
48424;BME280;34232;42.502;26.014;2024-02-04T01:04:16;100415.13;;;4.40;63.17
48424;BME280;34232;42.502;26.014;2024-02-04T01:06:41;100416.59;;;4.29;63.16
48424;BME280;34232;42.502;26.014;2024-02-04T01:09:06;100416.88;;;4.22;63.02
48424;BME280;34232;42.502;26.014;2024-02-04T01:11:33;100415.06;;;4.07;63.97
48424;BME280;34232;42.502;26.014;2024-02-04T01:13:58;100417.66;;;4.07;65.53
48424;BME280;34232;42.502;26.014;2024-02-04T01:16:24;100418.56;;;4.06;65.32
48424;BME280;34232;42.502;26.014;2024-02-04T01:18:49;100415.97;;;4.06;64.87
48424;BME280;34232;42.502;26.014;2024-02-04T01:21:14;100406.94;;;4.13;65.48
48424;BME280;34232;42.502;26.014;2024-02-04T01:23:40;100407.00;;;4.12;65.46
48424;BME280;34232;42.502;26.014;2024-02-04T01:26:05;100402.03;;;4.07;65.24
48424;BME280;34232;42.502;26.014;2024-02-04T01:28:30;100400.03;;;4.12;65.15
48424;BME280;34232;42.502;26.014;2024-02-04T01:30:56;100394.47;;;4.03;65.12
48424;BME280;34232;42.502;26.014;2024-02-04T01:33:21;100398.81;;;4.02;65.34
48424;BME280;34232;42.502;26.014;2024-02-04T01:35:47;100391.16;;;3.99;66.00
48424;BME280;34232;42.502;26.014;2024-02-04T01:38:12;100377.81;;;3.71;66.59
48424;BME280;34232;42.502;26.014;2024-02-04T01:40:38;100378.75;;;3.87;66.72
48424;BME280;34232;42.502;26.014;2024-02-04T01:43:03;100375.06;;;3.91;66.55
48424;BME280;34232;42.502;26.014;2024-02-04T01:45:28;100364.66;;;3.91;65.53
48424;BME280;34232;42.502;26.014;2024-02-04T01:47:54;100362.81;;;3.93;65.39
48424;BME280;34232;42.502;26.014;2024-02-04T01:50:19;100368.78;;;3.78;65.14
48424;BME280;34232;42.502;26.014;2024-02-04T01:52:45;100370.63;;;3.76;65.36
48424;BME280;34232;42.502;26.014;2024-02-04T01:55:11;100370.88;;;3.35;67.09
48424;BME280;34232;42.502;26.014;2024-02-04T01:57:36;100375.47;;;3.47;67.11
48424;BME280;34232;42.502;26.014;2024-02-04T02:00:02;100365.84;;;3.49;67.30
48424;BME280;34232;42.502;26.014;2024-02-04T02:02:29;100360.47;;;3.35;66.41
48424;BME280;34232;42.502;26.014;2024-02-04T02:04:56;100366.25;;;3.23;66.39
48424;BME280;34232;42.502;26.014;2024-02-04T02:07:22;100372.19;;;3.25;66.54
48424;BME280;34232;42.502;26.014;2024-02-04T02:09:49;100359.66;;;3.16;66.86
48424;BME280;34232;42.502;26.014;2024-02-04T02:12:16;100366.81;;;3.11;67.70
48424;BME280;34232;42.502;26.014;2024-02-04T02:14:48;100358.66;;;3.19;67.77
48424;BME280;34232;42.502;26.014;2024-02-04T02:17:16;100359.06;;;3.28;67.27
48424;BME280;34232;42.502;26.014;2024-02-04T02:19:52;100362.56;;;3.27;67.47
48424;BME280;34232;42.502;26.014;2024-02-04T02:22:27;100355.72;;;2.89;69.18
48424;BME280;34232;42.502;26.014;2024-02-04T02:24:53;100358.53;;;3.03;69.57
48424;BME280;34232;42.502;26.014;2024-02-04T02:27:21;100356.97;;;3.17;69.41
48424;BME280;34232;42.502;26.014;2024-02-04T02:29:46;100343.75;;;3.22;71.45
48424;BME280;34232;42.502;26.014;2024-02-04T02:32:13;100345.13;;;3.29;73.23
48424;BME280;34232;42.502;26.014;2024-02-04T02:34:39;100346.66;;;3.52;72.76
48424;BME280;34232;42.502;26.014;2024-02-04T02:42:21;100328.66;;;3.82;72.02
48424;BME280;34232;42.502;26.014;2024-02-04T02:44:47;100335.84;;;3.94;71.28
48424;BME280;34232;42.502;26.014;2024-02-04T02:47:13;100335.94;;;3.93;71.71
48424;BME280;34232;42.502;26.014;2024-02-04T02:49:39;100335.25;;;3.89;71.47
48424;BME280;34232;42.502;26.014;2024-02-04T02:52:04;100337.75;;;4.08;71.21
48424;BME280;34232;42.502;26.014;2024-02-04T02:54:30;100331.00;;;4.21;70.22
48424;BME280;34232;42.502;26.014;2024-02-04T02:56:55;100337.81;;;4.06;70.76
48424;BME280;34232;42.502;26.014;2024-02-04T02:59:21;100336.00;;;3.91;70.68
48424;BME280;34232;42.502;26.014;2024-02-04T03:01:46;100340.06;;;4.14;70.57
48424;BME280;34232;42.502;26.014;2024-02-04T03:04:11;100340.09;;;4.30;69.95
48424;BME280;34232;42.502;26.014;2024-02-04T03:06:37;100338.63;;;4.41;69.16
48424;BME280;34232;42.502;26.014;2024-02-04T03:09:02;100345.97;;;4.50;68.78
48424;BME280;34232;42.502;26.014;2024-02-04T03:11:27;100343.00;;;4.56;67.97
48424;BME280;34232;42.502;26.014;2024-02-04T03:13:52;100333.97;;;4.31;67.08
48424;BME280;34232;42.502;26.014;2024-02-04T03:16:18;100351.22;;;4.33;66.60
48424;BME280;34232;42.502;26.014;2024-02-04T03:18:43;100347.91;;;4.30;66.59
48424;BME280;34232;42.502;26.014;2024-02-04T03:21:15;100340.41;;;4.23;66.43
48424;BME280;34232;42.502;26.014;2024-02-04T03:23:41;100342.09;;;4.25;65.99
48424;BME280;34232;42.502;26.014;2024-02-04T03:26:06;100351.47;;;4.11;66.03
48424;BME280;34232;42.502;26.014;2024-02-04T03:28:32;100353.31;;;4.09;65.69
48424;BME280;34232;42.502;26.014;2024-02-04T03:30:57;100354.22;;;4.08;65.82
48424;BME280;34232;42.502;26.014;2024-02-04T03:33:22;100345.97;;;4.00;65.89
48424;BME280;34232;42.502;26.014;2024-02-04T03:35:48;100342.31;;;3.87;66.00
48424;BME280;34232;42.502;26.014;2024-02-04T03:38:13;100354.63;;;3.83;66.52
48424;BME280;34232;42.502;26.014;2024-02-04T03:40:39;100359.84;;;3.83;66.78
48424;BME280;34232;42.502;26.014;2024-02-04T03:43:07;100356.38;;;3.83;67.03
48424;BME280;34232;42.502;26.014;2024-02-04T03:45:33;100354.69;;;3.82;67.02
48424;BME280;34232;42.502;26.014;2024-02-04T03:47:58;100353.31;;;3.75;67.20
48424;BME280;34232;42.502;26.014;2024-02-04T03:50:23;100350.69;;;3.75;67.34
48424;BME280;34232;42.502;26.014;2024-02-04T03:52:49;100350.94;;;3.70;67.44
48424;BME280;34232;42.502;26.014;2024-02-04T03:55:14;100354.22;;;3.74;67.77
48424;BME280;34232;42.502;26.014;2024-02-04T03:57:39;100359.22;;;3.78;67.53
48424;BME280;34232;42.502;26.014;2024-02-04T04:00:05;100364.28;;;3.81;67.80
48424;BME280;34232;42.502;26.014;2024-02-04T04:02:30;100358.84;;;3.69;68.09
48424;BME280;34232;42.502;26.014;2024-02-04T04:04:56;100343.16;;;3.70;68.32
48424;BME280;34232;42.502;26.014;2024-02-04T04:07:21;100338.44;;;3.60;68.26
48424;BME280;34232;42.502;26.014;2024-02-04T04:09:46;100337.38;;;3.46;69.39
48424;BME280;34232;42.502;26.014;2024-02-04T04:12:12;100333.56;;;3.54;69.26
48424;BME280;34232;42.502;26.014;2024-02-04T04:14:37;100340.13;;;3.61;68.76
48424;BME280;34232;42.502;26.014;2024-02-04T04:17:02;100348.19;;;3.56;68.82
48424;BME280;34232;42.502;26.014;2024-02-04T04:19:28;100340.13;;;3.61;69.23
48424;BME280;34232;42.502;26.014;2024-02-04T04:21:53;100333.09;;;3.63;69.00
48424;BME280;34232;42.502;26.014;2024-02-04T04:24:19;100333.03;;;3.64;68.67
48424;BME280;34232;42.502;26.014;2024-02-04T04:26:47;100335.06;;;3.58;68.51
48424;BME280;34232;42.502;26.014;2024-02-04T04:29:12;100323.28;;;3.50;68.36
48424;BME280;34232;42.502;26.014;2024-02-04T04:31:37;100325.13;;;3.48;68.80
48424;BME280;34232;42.502;26.014;2024-02-04T04:34:02;100326.66;;;3.53;68.68
48424;BME280;34232;42.502;26.014;2024-02-04T04:36:28;100335.06;;;3.58;68.66
48424;BME280;34232;42.502;26.014;2024-02-04T04:38:53;100329.72;;;3.61;68.70
48424;BME280;34232;42.502;26.014;2024-02-04T04:41:18;100329.56;;;3.64;68.94
48424;BME280;34232;42.502;26.014;2024-02-04T04:43:44;100336.31;;;3.68;69.15
48424;BME280;34232;42.502;26.014;2024-02-04T04:46:09;100334.00;;;3.79;69.10
48424;BME280;34232;42.502;26.014;2024-02-04T04:48:34;100338.00;;;3.86;68.79
48424;BME280;34232;42.502;26.014;2024-02-04T04:51:00;100342.13;;;3.90;68.55
48424;BME280;34232;42.502;26.014;2024-02-04T04:53:25;100339.28;;;3.95;68.47
48424;BME280;34232;42.502;26.014;2024-02-04T04:55:50;100330.72;;;3.75;69.21
48424;BME280;34232;42.502;26.014;2024-02-04T04:58:15;100333.50;;;3.72;69.60
48424;BME280;34232;42.502;26.014;2024-02-04T05:00:41;100335.41;;;3.86;69.54
48424;BME280;34232;42.502;26.014;2024-02-04T05:03:06;100340.63;;;3.86;69.56
48424;BME280;34232;42.502;26.014;2024-02-04T05:05:31;100336.91;;;3.90;69.42
48424;BME280;34232;42.502;26.014;2024-02-04T05:07:57;100347.94;;;3.95;69.30
48424;BME280;34232;42.502;26.014;2024-02-04T05:10:22;100365.25;;;3.79;70.01
48424;BME280;34232;42.502;26.014;2024-02-04T05:12:47;100355.00;;;3.93;69.93
48424;BME280;34232;42.502;26.014;2024-02-04T05:15:13;100358.06;;;3.84;70.13
48424;BME280;34232;42.502;26.014;2024-02-04T05:17:38;100358.22;;;3.81;70.48
48424;BME280;34232;42.502;26.014;2024-02-04T05:20:04;100364.66;;;3.91;70.25
48424;BME280;34232;42.502;26.014;2024-02-04T05:22:29;100350.25;;;4.01;69.96
48424;BME280;34232;42.502;26.014;2024-02-04T05:24:54;100349.28;;;3.86;70.26
48424;BME280;34232;42.502;26.014;2024-02-04T05:27:20;100358.84;;;3.86;70.48
48424;BME280;34232;42.502;26.014;2024-02-04T05:29:45;100371.53;;;3.92;70.17
48424;BME280;34232;42.502;26.014;2024-02-04T05:32:11;100374.47;;;3.86;69.25
48424;BME280;34232;42.502;26.014;2024-02-04T05:34:36;100361.13;;;3.75;68.95
48424;BME280;34232;42.502;26.014;2024-02-04T05:37:02;100396.47;;;3.62;69.52
48424;BME280;34232;42.502;26.014;2024-02-04T05:39:28;100380.81;;;3.44;70.24
48424;BME280;34232;42.502;26.014;2024-02-04T05:41:53;100361.78;;;3.08;71.61
48424;BME280;34232;42.502;26.014;2024-02-04T05:44:18;100396.78;;;3.01;72.81
48424;BME280;34232;42.502;26.014;2024-02-04T05:46:44;100418.13;;;2.89;73.39
48424;BME280;34232;42.502;26.014;2024-02-04T05:49:09;100425.88;;;2.90;73.70
48424;BME280;34232;42.502;26.014;2024-02-04T05:51:38;100413.41;;;2.97;74.15
48424;BME280;34232;42.502;26.014;2024-02-04T05:54:04;100393.66;;;2.93;74.26
48424;BME280;34232;42.502;26.014;2024-02-04T05:56:29;100404.91;;;3.12;73.85
48424;BME280;34232;42.502;26.014;2024-02-04T05:58:55;100391.44;;;3.23;73.51
48424;BME280;34232;42.502;26.014;2024-02-04T06:01:20;100392.28;;;3.23;74.05
48424;BME280;34232;42.502;26.014;2024-02-04T06:03:45;100398.56;;;3.36;73.42
48424;BME280;34232;42.502;26.014;2024-02-04T06:06:14;100393.31;;;3.38;73.08
48424;BME280;34232;42.502;26.014;2024-02-04T06:08:41;100398.84;;;3.30;73.88
48424;BME280;34232;42.502;26.014;2024-02-04T06:11:09;100398.56;;;3.36;73.89
48424;BME280;34232;42.502;26.014;2024-02-04T06:13:34;100382.22;;;3.51;73.54
48424;BME280;34232;42.502;26.014;2024-02-04T06:15:59;100376.81;;;3.56;73.67
48424;BME280;34232;42.502;26.014;2024-02-04T06:18:25;100374.59;;;3.66;73.49
48424;BME280;34232;42.502;26.014;2024-02-04T06:20:50;100378.75;;;3.87;72.53
48424;BME280;34232;42.502;26.014;2024-02-04T06:23:15;100371.88;;;4.03;72.56
48424;BME280;34232;42.502;26.014;2024-02-04T06:25:40;100373.69;;;4.18;71.87
48424;BME280;34232;42.502;26.014;2024-02-04T06:28:06;100376.59;;;4.30;71.67
48424;BME280;34232;42.502;26.014;2024-02-04T06:30:33;100384.88;;;4.38;71.06
48424;BME280;34232;42.502;26.014;2024-02-04T06:32:58;100390.22;;;4.35;70.57
48424;BME280;34232;42.502;26.014;2024-02-04T06:35:24;100369.03;;;4.41;70.65
48424;BME280;34232;42.502;26.014;2024-02-04T06:37:49;100365.22;;;4.48;70.37
48424;BME280;34232;42.502;26.014;2024-02-04T06:40:14;100374.63;;;4.50;70.55
48424;BME280;34232;42.502;26.014;2024-02-04T06:42:40;100375.03;;;4.26;71.36
48424;BME280;34232;42.502;26.014;2024-02-04T06:45:05;100371.34;;;4.47;71.56
48424;BME280;34232;42.502;26.014;2024-02-04T06:47:30;100377.50;;;4.62;71.03
48424;BME280;34232;42.502;26.014;2024-02-04T06:49:56;100374.16;;;4.75;70.83
48424;BME280;34232;42.502;26.014;2024-02-04T06:52:21;100371.84;;;4.86;70.43
48424;BME280;34232;42.502;26.014;2024-02-04T06:54:46;100378.94;;;5.00;70.54
48424;BME280;34232;42.502;26.014;2024-02-04T06:57:11;100392.06;;;5.14;69.78
48424;BME280;34232;42.502;26.014;2024-02-04T06:59:37;100385.47;;;5.23;69.86
48424;BME280;34232;42.502;26.014;2024-02-04T07:02:02;100381.94;;;5.24;69.19
48424;BME280;34232;42.502;26.014;2024-02-04T07:04:28;100392.38;;;5.24;68.92
48424;BME280;34232;42.502;26.014;2024-02-04T07:06:53;100383.47;;;5.28;69.55
48424;BME280;34232;42.502;26.014;2024-02-04T07:09:18;100386.47;;;5.36;69.12
48424;BME280;34232;42.502;26.014;2024-02-04T07:11:43;100386.91;;;5.44;68.86
48424;BME280;34232;42.502;26.014;2024-02-04T07:14:09;100392.53;;;5.52;68.31
48424;BME280;34232;42.502;26.014;2024-02-04T07:16:34;100388.66;;;5.59;68.13
48424;BME280;34232;42.502;26.014;2024-02-04T07:19:00;100386.81;;;5.61;68.57
48424;BME280;34232;42.502;26.014;2024-02-04T07:21:25;100389.81;;;5.70;68.44
48424;BME280;34232;42.502;26.014;2024-02-04T07:23:50;100378.09;;;5.77;68.38
48424;BME280;34232;42.502;26.014;2024-02-04T07:26:16;100383.06;;;5.81;68.01
48424;BME280;34232;42.502;26.014;2024-02-04T07:28:41;100378.69;;;5.82;68.30
48424;BME280;34232;42.502;26.014;2024-02-04T07:31:07;100379.19;;;5.73;69.25
48424;BME280;34232;42.502;26.014;2024-02-04T07:33:32;100383.59;;;5.72;70.98
48424;BME280;34232;42.502;26.014;2024-02-04T07:35:57;100382.22;;;5.81;71.55
48424;BME280;34232;42.502;26.014;2024-02-04T07:38:23;100388.75;;;5.88;71.42
48424;BME280;34232;42.502;26.014;2024-02-04T07:40:48;100391.16;;;5.92;71.55
48424;BME280;34232;42.502;26.014;2024-02-04T07:43:13;100400.97;;;5.87;71.79
48424;BME280;34232;42.502;26.014;2024-02-04T07:45:39;100386.84;;;5.91;71.86
48424;BME280;34232;42.502;26.014;2024-02-04T07:48:04;100396.03;;;5.99;72.02
48424;BME280;34232;42.502;26.014;2024-02-04T07:50:30;100379.91;;;6.06;72.17
48424;BME280;34232;42.502;26.014;2024-02-04T07:52:55;100378.97;;;6.07;72.00
48424;BME280;34232;42.502;26.014;2024-02-04T07:55:20;100381.16;;;6.15;71.63
48424;BME280;34232;42.502;26.014;2024-02-04T07:57:46;100399.50;;;5.99;71.77
48424;BME280;34232;42.502;26.014;2024-02-04T08:00:11;100390.09;;;6.11;71.75
48424;BME280;34232;42.502;26.014;2024-02-04T08:02:36;100377.59;;;6.16;71.69
48424;BME280;34232;42.502;26.014;2024-02-04T08:05:04;100385.91;;;6.22;71.39
48424;BME280;34232;42.502;26.014;2024-02-04T08:07:30;100373.22;;;6.16;71.88
48424;BME280;34232;42.502;26.014;2024-02-04T08:09:55;100378.81;;;6.24;71.82
48424;BME280;34232;42.502;26.014;2024-02-04T08:12:21;100369.84;;;6.14;72.40
48424;BME280;34232;42.502;26.014;2024-02-04T08:14:46;100378.91;;;6.23;72.39
48424;BME280;34232;42.502;26.014;2024-02-04T08:17:11;100376.59;;;6.32;72.46
48424;BME280;34232;42.502;26.014;2024-02-04T08:19:37;100375.09;;;6.43;72.29
48424;BME280;34232;42.502;26.014;2024-02-04T08:22:02;100365.94;;;6.50;72.11
48424;BME280;34232;42.502;26.014;2024-02-04T08:24:29;100363.91;;;6.55;71.57
48424;BME280;34232;42.502;26.014;2024-02-04T08:26:56;100352.41;;;6.57;71.28
48424;BME280;34232;42.502;26.014;2024-02-04T08:29:22;100369.69;;;6.60;71.32
48424;BME280;34232;42.502;26.014;2024-02-04T08:31:48;100361.84;;;6.60;71.47
48424;BME280;34232;42.502;26.014;2024-02-04T08:34:13;100372.13;;;6.63;71.13
48424;BME280;34232;42.502;26.014;2024-02-04T08:36:38;100377.06;;;6.67;71.16
48424;BME280;34232;42.502;26.014;2024-02-04T08:39:04;100376.97;;;6.69;71.47
48424;BME280;34232;42.502;26.014;2024-02-04T08:41:29;100380.16;;;6.74;70.87
48424;BME280;34232;42.502;26.014;2024-02-04T08:43:54;100374.94;;;6.74;71.26
48424;BME280;34232;42.502;26.014;2024-02-04T08:46:20;100371.75;;;6.69;71.57
48424;BME280;34232;42.502;26.014;2024-02-04T08:48:45;100378.84;;;6.67;72.61
48424;BME280;34232;42.502;26.014;2024-02-04T08:51:13;100393.25;;;6.74;71.95
48424;BME280;34232;42.502;26.014;2024-02-04T08:53:41;100382.69;;;6.76;72.03
48424;BME280;34232;42.502;26.014;2024-02-04T08:56:06;100388.38;;;6.82;72.01
48424;BME280;34232;42.502;26.014;2024-02-04T08:58:31;100385.88;;;6.81;71.88
48424;BME280;34232;42.502;26.014;2024-02-04T09:00:57;100382.50;;;6.93;71.62
48424;BME280;34232;42.502;26.014;2024-02-04T09:03:22;100368.81;;;7.02;70.95
48424;BME280;34232;42.502;26.014;2024-02-04T09:05:48;100372.66;;;7.11;70.21
48424;BME280;34232;42.502;26.014;2024-02-04T09:08:13;100376.72;;;7.15;70.49
48424;BME280;34232;42.502;26.014;2024-02-04T09:10:39;100366.16;;;7.16;70.45
48424;BME280;34232;42.502;26.014;2024-02-04T09:13:04;100375.59;;;7.19;70.15
48424;BME280;34232;42.502;26.014;2024-02-04T09:15:29;100387.59;;;7.23;70.13
48424;BME280;34232;42.502;26.014;2024-02-04T09:17:54;100379.16;;;7.18;70.53
48424;BME280;34232;42.502;26.014;2024-02-04T09:20:20;100374.34;;;7.12;70.08
48424;BME280;34232;42.502;26.014;2024-02-04T09:22:45;100382.53;;;7.20;70.71
48424;BME280;34232;42.502;26.014;2024-02-04T09:25:10;100377.28;;;7.20;70.29
48424;BME280;34232;42.502;26.014;2024-02-04T09:27:36;100375.03;;;7.28;70.11
48424;BME280;34232;42.502;26.014;2024-02-04T09:30:01;100371.09;;;7.35;69.94
48424;BME280;34232;42.502;26.014;2024-02-04T09:32:27;100381.38;;;7.38;69.70
48424;BME280;34232;42.502;26.014;2024-02-04T09:34:52;100376.03;;;7.40;69.59
48424;BME280;34232;42.502;26.014;2024-02-04T09:37:18;100370.69;;;7.41;69.75
48424;BME280;34232;42.502;26.014;2024-02-04T09:39:43;100378.66;;;7.40;69.65
48424;BME280;34232;42.502;26.014;2024-02-04T09:42:08;100360.97;;;7.43;69.96
48424;BME280;34232;42.502;26.014;2024-02-04T09:44:35;100348.53;;;7.47;69.90
48424;BME280;34232;42.502;26.014;2024-02-04T09:47:01;100340.75;;;7.45;70.75
48424;BME280;34232;42.502;26.014;2024-02-04T09:49:27;100321.50;;;7.46;71.20
48424;BME280;34232;42.502;26.014;2024-02-04T09:51:52;100326.03;;;7.57;70.96
48424;BME280;34232;42.502;26.014;2024-02-04T09:54:17;100331.81;;;7.62;70.80
48424;BME280;34232;42.502;26.014;2024-02-04T09:56:43;100330.34;;;7.70;70.25
48424;BME280;34232;42.502;26.014;2024-02-04T09:59:09;100336.72;;;7.66;70.45
48424;BME280;34232;42.502;26.014;2024-02-04T10:01:35;100335.38;;;7.73;70.25
48424;BME280;34232;42.502;26.014;2024-02-04T10:04:00;100330.47;;;7.82;69.95
48424;BME280;34232;42.502;26.014;2024-02-04T10:06:25;100328.06;;;7.79;69.32
48424;BME280;34232;42.502;26.014;2024-02-04T10:08:51;100329.13;;;7.89;69.07
48424;BME280;34232;42.502;26.014;2024-02-04T10:11:16;100333.81;;;7.71;69.14
48424;BME280;34232;42.502;26.014;2024-02-04T10:13:45;100334.56;;;7.86;69.00
48424;BME280;34232;42.502;26.014;2024-02-04T10:16:15;100325.56;;;7.90;69.10
48424;BME280;34232;42.502;26.014;2024-02-04T10:18:42;100325.28;;;7.94;68.46
48424;BME280;34232;42.502;26.014;2024-02-04T10:21:20;100325.56;;;8.02;68.57
48424;BME280;34232;42.502;26.014;2024-02-04T10:23:49;100324.22;;;8.10;68.00
48424;BME280;34232;42.502;26.014;2024-02-04T10:26:15;100320.34;;;8.15;68.25
48424;BME280;34232;42.502;26.014;2024-02-04T10:28:41;100315.63;;;8.20;68.15
48424;BME280;34232;42.502;26.014;2024-02-04T10:31:10;100326.13;;;8.20;68.02
48424;BME280;34232;42.502;26.014;2024-02-04T10:33:35;100321.41;;;8.25;68.50
48424;BME280;34232;42.502;26.014;2024-02-04T10:36:01;100317.00;;;8.26;68.41
48424;BME280;34232;42.502;26.014;2024-02-04T10:38:26;100324.53;;;8.30;68.70
48424;BME280;34232;42.502;26.014;2024-02-04T10:40:53;100332.13;;;8.35;68.34
48424;BME280;34232;42.502;26.014;2024-02-04T10:43:18;100334.75;;;8.35;68.08
48424;BME280;34232;42.502;26.014;2024-02-04T10:45:45;100324.97;;;8.24;68.44
48424;BME280;34232;42.502;26.014;2024-02-04T10:48:10;100331.66;;;8.28;68.68
48424;BME280;34232;42.502;26.014;2024-02-04T10:50:36;100334.66;;;8.36;68.50
48424;BME280;34232;42.502;26.014;2024-02-04T10:53:04;100337.81;;;8.41;68.20
48424;BME280;34232;42.502;26.014;2024-02-04T10:55:30;100323.19;;;8.50;68.03
48424;BME280;34232;42.502;26.014;2024-02-04T10:57:56;100323.09;;;8.52;67.70
48424;BME280;34232;42.502;26.014;2024-02-04T11:00:21;100320.56;;;8.50;68.16
48424;BME280;34232;42.502;26.014;2024-02-04T11:02:47;100322.25;;;8.51;67.62
48424;BME280;34232;42.502;26.014;2024-02-04T11:05:14;100315.31;;;8.50;68.11
48424;BME280;34232;42.502;26.014;2024-02-04T11:07:42;100303.56;;;8.56;67.88
48424;BME280;34232;42.502;26.014;2024-02-04T11:10:08;100297.28;;;8.46;68.31
48424;BME280;34232;42.502;26.014;2024-02-04T11:12:34;100301.91;;;8.55;68.77
48424;BME280;34232;42.502;26.014;2024-02-04T11:15:03;100291.19;;;8.58;68.67
48424;BME280;34232;42.502;26.014;2024-02-04T11:22:52;100277.97;;;8.21;71.06
48424;BME280;34232;42.502;26.014;2024-02-04T11:27:50;100274.41;;;8.48;70.59
48424;BME280;34232;42.502;26.014;2024-02-04T11:30:16;100277.41;;;8.67;70.37
48424;BME280;34232;42.502;26.014;2024-02-04T11:32:42;100268.44;;;8.82;70.04
48424;BME280;34232;42.502;26.014;2024-02-04T11:35:07;100267.56;;;8.94;69.26
48424;BME280;34232;42.502;26.014;2024-02-04T11:37:33;100263.00;;;9.09;69.10
48424;BME280;34232;42.502;26.014;2024-02-04T11:39:58;100266.63;;;9.19;68.87
48424;BME280;34232;42.502;26.014;2024-02-04T11:42:24;100262.25;;;9.31;68.98
48424;BME280;34232;42.502;26.014;2024-02-04T11:44:50;100260.63;;;9.41;68.49
48424;BME280;34232;42.502;26.014;2024-02-04T11:47:22;100266.13;;;9.49;68.16
48424;BME280;34232;42.502;26.014;2024-02-04T11:49:57;100272.25;;;9.61;67.66
48424;BME280;34232;42.502;26.014;2024-02-04T11:52:23;100260.47;;;9.66;67.19
48424;BME280;34232;42.502;26.014;2024-02-04T11:54:48;100256.88;;;9.67;67.25
48424;BME280;34232;42.502;26.014;2024-02-04T11:57:14;100256.44;;;9.73;66.42
48424;BME280;34232;42.502;26.014;2024-02-04T11:59:39;100246.53;;;9.88;66.41
48424;BME280;34232;42.502;26.014;2024-02-04T12:02:05;100240.00;;;10.05;66.11
48424;BME280;34232;42.502;26.014;2024-02-04T12:04:31;100235.91;;;10.12;65.54
48424;BME280;34232;42.502;26.014;2024-02-04T12:06:57;100235.25;;;10.21;65.02
48424;BME280;34232;42.502;26.014;2024-02-04T12:09:22;100236.19;;;10.31;64.47
48424;BME280;34232;42.502;26.014;2024-02-04T12:11:47;100228.91;;;10.35;63.81
48424;BME280;34232;42.502;26.014;2024-02-04T12:14:13;100226.38;;;10.44;63.15
48424;BME280;34232;42.502;26.014;2024-02-04T12:16:38;100215.13;;;10.54;62.40
48424;BME280;34232;42.502;26.014;2024-02-04T12:19:05;100214.38;;;10.63;62.62
48424;BME280;34232;42.502;26.014;2024-02-04T12:21:31;100223.91;;;10.75;62.00
48424;BME280;34232;42.502;26.014;2024-02-04T12:23:56;100226.28;;;10.89;62.20
48424;BME280;34232;42.502;26.014;2024-02-04T12:26:22;100219.75;;;11.04;61.17
48424;BME280;34232;42.502;26.014;2024-02-04T12:28:48;100215.63;;;11.22;60.15
48424;BME280;34232;42.502;26.014;2024-02-04T12:31:17;100209.53;;;11.43;59.86
48424;BME280;34232;42.502;26.014;2024-02-04T12:33:43;100211.34;;;11.63;59.22
48424;BME280;34232;42.502;26.014;2024-02-04T12:36:09;100213.91;;;11.74;57.78
48424;BME280;34232;42.502;26.014;2024-02-04T12:38:34;100204.00;;;11.87;56.59
48424;BME280;34232;42.502;26.014;2024-02-04T12:41:03;100203.94;;;11.99;56.23
48424;BME280;34232;42.502;26.014;2024-02-04T12:43:28;100206.94;;;12.15;56.14
48424;BME280;34232;42.502;26.014;2024-02-04T12:45:56;100211.94;;;12.18;55.52
48424;BME280;34232;42.502;26.014;2024-02-04T12:48:21;100209.72;;;12.23;54.52
48424;BME280;34232;42.502;26.014;2024-02-04T12:50:48;100208.94;;;12.32;54.70
48424;BME280;34232;42.502;26.014;2024-02-04T12:53:13;100208.72;;;12.45;55.20
48424;BME280;34232;42.502;26.014;2024-02-04T12:55:40;100206.22;;;12.53;54.62